Time,TemperatureF,DewpointF,PressureIn,WindDirection,WindDirectionDegrees,WindSpeedMPH,WindSpeedGustMPH,Humidity,HourlyPrecipIn,Conditions,Clouds,dailyrainin,SoftwareType,DateUTC
2013-03-26 00:09:00,29.9,22.0,29.95,SE,131,0.0,1.0,72,0.00,,,0.00,weatherlink.com 1.10,2013-03-26 04:09:00,
2013-03-26 00:24:00,29.7,22.0,29.95,ESE,117,0.0,1.0,72,0.00,,,0.00,weatherlink.com 1.10,2013-03-26 04:24:00,
2013-03-26 00:39:00,29.5,22.0,29.95,ESE,115,0.0,1.0,73,0.00,,,0.00,weatherlink.com 1.10,2013-03-26 04:39:00,
2013-03-26 00:54:00,29.6,22.0,29.96,ESE,122,0.0,2.0,74,0.00,,,0.00,weatherlink.com 1.10,2013-03-26 04:54:00,
2013-03-26 01:09:00,29.6,22.0,29.96,ESE,111,0.0,1.0,74,0.00,,,0.00,weatherlink.com 1.10,2013-03-26 05:09:00,
2013-03-26 01:24:00,29.6,22.0,29.96,WNW,288,0.0,2.0,73,0.00,,,0.00,weatherlink.com 1.10,2013-03-26 05:24:00,
2013-03-26 01:39:00,29.6,22.0,29.96,WSW,257,0.0,2.0,73,0.00,,,0.00,weatherlink.com 1.10,2013-03-26 05:39:00,
2013-03-26 01:54:00,29.2,22.0,29.97,South,188,0.0,1.0,74,0.00,,,0.00,weatherlink.com 1.10,2013-03-26 05:54:00,
2013-03-26 02:09:00,28.9,22.0,29.96,SW,231,0.0,1.0,76,0.00,,,0.00,weatherlink.com 1.10,2013-03-26 06:09:00,
2013-03-26 02:24:00,28.8,21.0,29.96,SW,214,0.0,2.0,73,0.00,,,0.00,weatherlink.com 1.10,2013-03-26 06:24:00,
2013-03-26 02:39:00,29.0,20.0,29.96,West,273,1.0,2.0,69,0.00,,,0.00,weatherlink.com 1.10,2013-03-26 06:39:00,
2013-03-26 02:54:00,29.8,19.0,29.96,NE,56,1.0,3.0,65,0.00,,,0.00,weatherlink.com 1.10,2013-03-26 06:54:00,
2013-03-26 03:09:00,29.7,20.0,29.95,WNW,301,0.0,3.0,66,0.00,,,0.00,weatherlink.com 1.10,2013-03-26 07:09:00,
2013-03-26 03:24:00,29.5,20.0,29.95,WSW,248,2.0,3.0,68,0.00,,,0.00,weatherlink.com 1.10,2013-03-26 07:24:00,
2013-03-26 03:39:00,28.8,21.0,29.95,WSW,243,0.0,1.0,72,0.00,,,0.00,weatherlink.com 1.10,2013-03-26 07:39:00,
2013-03-26 03:54:00,28.0,21.0,29.95,WNW,294,0.0,1.0,75,0.00,,,0.00,weatherlink.com 1.10,2013-03-26 07:54:00,
2013-03-26 04:09:00,27.6,21.0,29.96,ESE,118,0.0,1.0,77,0.00,,,0.00,weatherlink.com 1.10,2013-03-26 08:09:00,
2013-03-26 04:24:00,27.2,21.0,29.96,ESE,119,0.0,1.0,78,0.00,,,0.00,weatherlink.com 1.10,2013-03-26 08:24:00,
2013-03-26 04:39:00,26.7,22.0,29.95,ESE,118,0.0,0.0,81,0.00,,,0.00,weatherlink.com 1.10,2013-03-26 08:39:00,
2013-03-26 04:54:00,26.5,21.0,29.95,NNE,25,0.0,1.0,81,0.00,,,0.00,weatherlink.com 1.10,2013-03-26 08:54:00,
2013-03-26 05:09:00,26.3,22.0,29.94,SSE,154,0.0,1.0,83,0.00,,,0.00,weatherlink.com 1.10,2013-03-26 09:09:00,
2013-03-26 05:24:00,26.4,20.0,29.94,ENE,71,0.0,2.0,78,0.00,,,0.00,weatherlink.com 1.10,2013-03-26 09:24:00,
2013-03-26 05:39:00,26.9,20.0,29.95,East,88,1.0,2.0,75,0.00,,,0.00,weatherlink.com 1.10,2013-03-26 09:39:00,
2013-03-26 05:54:00,27.5,20.0,29.95,ENE,65,0.0,3.0,72,0.00,,,0.00,weatherlink.com 1.10,2013-03-26 09:54:00,
2013-03-26 06:09:00,27.3,19.0,29.95,SSE,153,0.0,1.0,71,0.00,,,0.00,weatherlink.com 1.10,2013-03-26 10:09:00,
2013-03-26 06:24:00,27.1,20.0,29.95,ENE,65,0.0,2.0,74,0.00,,,0.00,weatherlink.com 1.10,2013-03-26 10:24:00,
2013-03-26 06:39:00,27.4,19.0,29.95,WNW,288,0.0,2.0,72,0.00,,,0.00,weatherlink.com 1.10,2013-03-26 10:39:00,
2013-03-26 06:55:00,27.7,19.0,29.95,East,99,0.0,2.0,71,0.00,,,0.00,weatherlink.com 1.10,2013-03-26 10:55:00,
2013-03-26 07:10:00,27.9,19.0,29.96,SE,125,1.0,2.0,70,0.00,,,0.00,weatherlink.com 1.10,2013-03-26 11:10:00,
2013-03-26 07:25:00,27.9,19.0,29.96,WNW,291,1.0,4.0,70,0.00,,,0.00,weatherlink.com 1.10,2013-03-26 11:25:00,
2013-03-26 07:40:00,28.1,19.0,29.97,ENE,72,0.0,1.0,68,0.00,,,0.00,weatherlink.com 1.10,2013-03-26 11:40:00,
2013-03-26 07:55:00,28.0,19.0,29.98,East,87,0.0,1.0,70,0.00,,,0.00,weatherlink.com 1.10,2013-03-26 11:55:00,
2013-03-26 08:10:00,28.3,20.0,29.98,NE,46,0.0,5.0,70,0.00,,,0.00,weatherlink.com 1.10,2013-03-26 12:10:00,
2013-03-26 08:25:00,29.0,20.0,29.99,East,88,1.0,1.0,70,0.00,,,0.00,weatherlink.com 1.10,2013-03-26 12:25:00,
2013-03-26 08:40:00,32.0,21.0,29.99,NNE,27,3.0,3.0,64,0.00,,,0.00,weatherlink.com 1.10,2013-03-26 12:40:00,
2013-03-26 08:55:00,34.2,21.0,30.00,SSE,156,0.0,5.0,58,0.00,,,0.00,weatherlink.com 1.10,2013-03-26 12:55:00,
2013-03-26 09:25:00,36.4,20.0,30.01,NE,51,5.0,6.0,52,0.00,,,0.00,weatherlink.com 1.10,2013-03-26 13:25:00,
2013-03-26 09:40:00,36.7,21.0,30.02,NE,48,1.0,4.0,54,0.00,,,0.00,weatherlink.com 1.10,2013-03-26 13:40:00,
2013-03-26 09:55:00,37.5,21.0,30.02,ENE,63,5.0,7.0,51,0.00,,,0.00,weatherlink.com 1.10,2013-03-26 13:55:00,
2013-03-26 10:10:00,38.4,22.0,30.03,ESE,113,1.0,7.0,52,0.00,,,0.00,weatherlink.com 1.10,2013-03-26 14:10:00,
2013-03-26 10:25:00,36.3,20.0,30.05,ENE,61,5.0,9.0,51,0.00,,,0.00,weatherlink.com 1.10,2013-03-26 14:25:00,
2013-03-26 10:40:00,36.5,21.0,30.05,ENE,63,3.0,8.0,53,0.00,,,0.00,weatherlink.com 1.10,2013-03-26 14:40:00,
2013-03-26 10:55:00,37.0,20.0,30.06,ENE,66,1.0,7.0,51,0.00,,,0.00,weatherlink.com 1.10,2013-03-26 14:55:00,
2013-03-26 11:10:00,38.2,20.0,30.07,NE,42,3.0,7.0,49,0.00,,,0.00,weatherlink.com 1.10,2013-03-26 15:10:00,
2013-03-26 11:25:00,39.9,22.0,30.07,WNW,285,4.0,10.0,49,0.00,,,0.00,weatherlink.com 1.10,2013-03-26 15:25:00,
2013-03-26 11:40:00,38.5,21.0,30.08,North,11,6.0,6.0,49,0.00,,,0.00,weatherlink.com 1.10,2013-03-26 15:40:00,
2013-03-26 11:55:00,38.5,20.0,30.09,SSW,207,2.0,9.0,48,0.00,,,0.00,weatherlink.com 1.10,2013-03-26 15:55:00,
2013-03-26 12:10:00,38.7,20.0,30.09,SW,229,4.0,9.0,48,0.00,,,0.00,weatherlink.com 1.10,2013-03-26 16:10:00,
2013-03-26 12:25:00,38.6,20.0,30.09,WNW,284,3.0,6.0,48,0.00,,,0.00,weatherlink.com 1.10,2013-03-26 16:25:00,
2013-03-26 12:40:00,38.6,21.0,30.09,NNE,26,4.0,7.0,50,0.00,,,0.00,weatherlink.com 1.10,2013-03-26 16:40:00,
2013-03-26 12:55:00,39.8,20.0,30.09,West,274,4.0,7.0,46,0.00,,,0.00,weatherlink.com 1.10,2013-03-26 16:55:00,
2013-03-26 13:10:00,41.1,23.0,30.09,East,89,2.0,11.0,48,0.00,,,0.00,weatherlink.com 1.10,2013-03-26 17:10:00,
2013-03-26 13:26:00,42.8,22.0,30.08,East,84,5.0,7.0,44,0.00,,,0.00,weatherlink.com 1.10,2013-03-26 17:26:00,
2013-03-26 13:41:00,41.8,20.0,30.08,West,271,0.0,9.0,42,0.00,,,0.00,weatherlink.com 1.10,2013-03-26 17:41:00,
2013-03-26 13:56:00,42.9,22.0,30.09,WNW,283,4.0,8.0,44,0.00,,,0.00,weatherlink.com 1.10,2013-03-26 17:56:00,
2013-03-26 14:11:00,41.3,21.0,30.09,NW,308,4.0,8.0,44,0.00,,,0.00,weatherlink.com 1.10,2013-03-26 18:11:00,
2013-03-26 14:41:00,40.6,21.0,30.09,NNE,20,4.0,10.0,46,0.00,,,0.00,weatherlink.com 1.10,2013-03-26 18:41:00,
2013-03-26 14:56:00,42.1,20.0,30.09,West,271,2.0,7.0,42,0.00,,,0.00,weatherlink.com 1.10,2013-03-26 18:56:00,
2013-03-26 15:11:00,40.8,21.0,30.09,ESE,121,0.0,4.0,45,0.00,,,0.00,weatherlink.com 1.10,2013-03-26 19:11:00,
2013-03-26 15:26:00,41.2,22.0,30.09,ENE,75,2.0,5.0,47,0.00,,,0.00,weatherlink.com 1.10,2013-03-26 19:26:00,
2013-03-26 15:41:00,40.8,22.0,30.10,NE,49,2.0,5.0,48,0.00,,,0.00,weatherlink.com 1.10,2013-03-26 19:41:00,
2013-03-26 15:56:00,40.4,22.0,30.10,NW,304,2.0,6.0,48,0.00,,,0.00,weatherlink.com 1.10,2013-03-26 19:56:00,
2013-03-26 16:26:00,40.9,23.0,30.10,SSE,152,0.0,6.0,49,0.00,,,0.00,weatherlink.com 1.10,2013-03-26 20:26:00,
2013-03-26 16:56:00,40.6,23.0,30.11,North,6,5.0,6.0,49,0.00,,,0.00,weatherlink.com 1.10,2013-03-26 20:56:00,
2013-03-26 17:26:00,38.3,22.0,30.12,NE,42,3.0,6.0,52,0.00,,,0.00,weatherlink.com 1.10,2013-03-26 21:26:00,
2013-03-26 17:41:00,38.0,22.0,30.12,NE,34,2.0,6.0,53,0.00,,,0.00,weatherlink.com 1.10,2013-03-26 21:41:00,
2013-03-26 17:56:00,37.5,23.0,30.12,ESE,114,3.0,5.0,55,0.00,,,0.00,weatherlink.com 1.10,2013-03-26 21:56:00,
2013-03-26 18:11:00,37.1,23.0,30.13,North,10,2.0,5.0,57,0.00,,,0.00,weatherlink.com 1.10,2013-03-26 22:11:00,
2013-03-26 18:26:00,37.6,23.0,30.13,NE,49,0.0,4.0,55,0.00,,,0.00,weatherlink.com 1.10,2013-03-26 22:26:00,
2013-03-26 18:41:00,36.7,23.0,30.14,NNE,19,2.0,4.0,58,0.00,,,0.00,weatherlink.com 1.10,2013-03-26 22:41:00,
2013-03-26 18:56:00,36.1,23.0,30.15,NE,55,0.0,4.0,59,0.00,,,0.00,weatherlink.com 1.10,2013-03-26 22:56:00,
2013-03-26 19:11:00,35.9,22.0,30.15,NE,44,0.0,5.0,58,0.00,,,0.00,weatherlink.com 1.10,2013-03-26 23:11:00,
2013-03-26 19:26:00,35.3,22.0,30.16,East,79,1.0,4.0,59,0.00,,,0.00,weatherlink.com 1.10,2013-03-26 23:26:00,
2013-03-26 19:41:00,34.8,23.0,30.17,NE,34,3.0,3.0,62,0.00,,,0.00,weatherlink.com 1.10,2013-03-26 23:41:00,
2013-03-26 19:56:00,34.3,22.0,30.17,NNE,28,3.0,3.0,61,0.00,,,0.00,weatherlink.com 1.10,2013-03-26 23:56:00,
2013-03-26 20:11:00,34.1,22.0,30.17,NE,50,0.0,4.0,62,0.00,,,0.00,weatherlink.com 1.10,2013-03-27 00:11:00,
2013-03-26 20:26:00,33.8,21.0,30.18,WNW,295,1.0,5.0,59,0.00,,,0.00,weatherlink.com 1.10,2013-03-27 00:26:00,
2013-03-26 20:41:00,33.4,20.0,30.18,ESE,113,0.0,3.0,59,0.00,,,0.00,weatherlink.com 1.10,2013-03-27 00:41:00,
2013-03-26 20:56:00,32.8,21.0,30.19,NE,49,0.0,2.0,61,0.00,,,0.00,weatherlink.com 1.10,2013-03-27 00:56:00,
2013-03-26 21:11:00,32.5,21.0,30.20,East,82,0.0,3.0,62,0.00,,,0.00,weatherlink.com 1.10,2013-03-27 01:11:00,
2013-03-26 21:30:00,32.1,21.0,30.20,West,273,1.0,4.0,64,0.00,,,0.00,weatherlink.com 1.10,2013-03-27 01:30:00,
2013-03-26 21:41:00,31.6,21.0,30.20,ENE,61,0.0,1.0,65,0.00,,,0.00,weatherlink.com 1.10,2013-03-27 01:41:00,
2013-03-26 21:56:00,31.7,20.0,30.21,ENE,77,0.0,0.0,62,0.00,,,0.00,weatherlink.com 1.10,2013-03-27 01:56:00,
2013-03-26 22:11:00,31.2,20.0,30.22,ENE,77,0.0,0.0,64,0.00,,,0.00,weatherlink.com 1.10,2013-03-27 02:11:00,
2013-03-26 22:26:00,30.2,22.0,30.23,ESE,107,0.0,1.0,70,0.00,,,0.00,weatherlink.com 1.10,2013-03-27 02:26:00,
2013-03-26 22:41:00,29.8,22.0,30.23,ESE,105,0.0,1.0,73,0.00,,,0.00,weatherlink.com 1.10,2013-03-27 02:41:00,
2013-03-26 22:56:00,30.0,21.0,30.23,ESE,105,0.0,0.0,69,0.00,,,0.00,weatherlink.com 1.10,2013-03-27 02:56:00,
2013-03-26 23:11:00,30.4,21.0,30.23,NE,43,0.0,2.0,68,0.00,,,0.00,weatherlink.com 1.10,2013-03-27 03:11:00,
2013-03-26 23:26:00,31.0,21.0,30.23,SE,134,0.0,2.0,67,0.00,,,0.00,weatherlink.com 1.10,2013-03-27 03:26:00,
2013-03-26 23:41:00,31.4,21.0,30.23,ESE,111,0.0,3.0,65,0.00,,,0.00,weatherlink.com 1.10,2013-03-27 03:41:00,
2013-03-26 23:57:00,31.5,21.0,30.23,ENE,61,0.0,3.0,65,0.00,,,0.00,weatherlink.com 1.10,2013-03-27 03:57:00,